createdAt,value
2023-03-18T00:00:52.271Z,101721.91
2023-03-18T00:03:19.394Z,101696.03
2023-03-18T00:05:46.568Z,101709.50
2023-03-18T00:08:13.545Z,101730.88
2023-03-18T00:10:40.700Z,101726.97
2023-03-18T00:13:07.681Z,101724.78
2023-03-18T00:15:34.777Z,101724.78
2023-03-18T00:18:01.754Z,101730.41
2023-03-18T00:20:38.720Z,101732.78
2023-03-18T00:23:06.922Z,101735.13
2023-03-18T00:25:33.905Z,101722.66
2023-03-18T00:28:00.907Z,101725.97
2023-03-18T00:30:27.952Z,101734.81
2023-03-18T00:32:56.690Z,101737.97
2023-03-18T00:35:27.937Z,101735.41
2023-03-18T00:37:55.631Z,101727.97
2023-03-18T00:40:28.609Z,101722.59
2023-03-18T00:43:07.847Z,101735.34
2023-03-18T00:45:38.365Z,101742.50
2023-03-18T00:48:05.453Z,101744.16
2023-03-18T00:50:32.677Z,101718.94
2023-03-18T00:53:00.821Z,101740.16
2023-03-18T00:55:28.835Z,101729.13
2023-03-18T00:57:55.788Z,101749.59
2023-03-18T01:00:22.906Z,101728.09
2023-03-18T01:02:49.899Z,101747.09
2023-03-18T01:05:17.502Z,101750.69
2023-03-18T01:07:44.946Z,101738.50
2023-03-18T01:10:14.659Z,101740.47
2023-03-18T01:12:43.420Z,101760.25
2023-03-18T01:15:13.998Z,101764.31
2023-03-18T01:17:41.035Z,101767.00
2023-03-18T01:20:11.627Z,101771.97
2023-03-18T01:22:42.336Z,101752.09
2023-03-18T01:25:11.806Z,101764.63
2023-03-18T01:27:40.807Z,101770.50
2023-03-18T01:30:09.351Z,101758.88
2023-03-18T01:32:38.123Z,101760.53
2023-03-18T01:35:06.021Z,101789.53
2023-03-18T01:37:33.637Z,101790.44
2023-03-18T01:40:11.857Z,101788.91
2023-03-18T01:42:40.124Z,101788.91
2023-03-18T01:45:40.507Z,101789.09
2023-03-18T01:48:14.986Z,101800.50
2023-03-18T01:50:45.038Z,101797.50
2023-03-18T01:53:15.608Z,101802.19
2023-03-18T01:55:45.514Z,101795.63
2023-03-18T01:58:27.222Z,101807.28
2023-03-18T02:01:09.609Z,101806.97
2023-03-18T02:03:41.586Z,101792.63
2023-03-18T02:06:10.218Z,101819.84
2023-03-18T02:08:39.651Z,101813.59
2023-03-18T02:11:09.411Z,101759.50
2023-03-18T02:13:44.101Z,101819.44
2023-03-18T02:16:32.594Z,101809.00
2023-03-18T02:19:09.645Z,101824.88
2023-03-18T02:21:54.399Z,101810.94
2023-03-18T02:24:25.333Z,101829.50
2023-03-18T02:27:18.477Z,101838.53
2023-03-18T02:29:47.409Z,101836.41
2023-03-18T02:32:20.945Z,101817.72
2023-03-18T02:34:49.125Z,101834.47
2023-03-18T02:37:16.266Z,101826.38
2023-03-18T02:39:44.131Z,101840.91
2023-03-18T02:42:14.334Z,101834.59
2023-03-18T02:44:48.459Z,101849.44
2023-03-18T02:47:52.944Z,101848.97
2023-03-18T02:50:21.653Z,101852.75
2023-03-18T02:52:48.644Z,101838.81
2023-03-18T02:55:15.759Z,101848.09
2023-03-18T02:57:42.904Z,101849.88
2023-03-18T03:00:11.217Z,101858.56
2023-03-18T03:02:38.342Z,101792.16
2023-03-18T03:05:05.815Z,101868.75
2023-03-18T03:07:32.825Z,101873.84
2023-03-18T03:10:03.129Z,101855.63
2023-03-18T03:12:30.845Z,101863.41
2023-03-18T03:14:58.471Z,101854.28
2023-03-18T03:17:28.065Z,101876.56
2023-03-18T03:19:55.020Z,101876.88
2023-03-18T03:22:22.123Z,101873.09
2023-03-18T03:24:49.354Z,101855.63
2023-03-18T03:27:16.760Z,101862.19
2023-03-18T03:29:43.817Z,101876.72
2023-03-18T03:32:10.899Z,101864.72
2023-03-18T03:34:38.754Z,101880.16
2023-03-18T03:37:06.766Z,101870.56
2023-03-18T03:39:34.051Z,101881.97
2023-03-18T03:42:01.015Z,101876.16
2023-03-18T03:44:28.008Z,101888.88
2023-03-18T03:46:55.485Z,101880.31
2023-03-18T03:49:23.668Z,101879.72
2023-03-18T03:51:50.627Z,101887.97
2023-03-18T03:54:19.725Z,101878.84
2023-03-18T03:56:48.062Z,101874.91
2023-03-18T03:59:19.238Z,101873.59
2023-03-18T04:02:19.263Z,101890.34
2023-03-18T04:04:46.524Z,101888.09
2023-03-18T04:07:40.215Z,101872.09
2023-03-18T04:10:10.819Z,101892.16
2023-03-18T04:12:39.954Z,101847.72
2023-03-18T04:15:08.509Z,101885.88
2023-03-18T04:17:36.375Z,101876.88
2023-03-18T04:20:05.563Z,101867.31
2023-03-18T04:22:34.128Z,101896.63
2023-03-18T04:25:04.972Z,101902.34
2023-03-18T04:27:33.990Z,101906.06
2023-03-18T04:30:08.451Z,101909.50
2023-03-18T04:32:44.504Z,101906.66
2023-03-18T04:35:12.114Z,101912.81
2023-03-18T04:37:39.153Z,101901.44
2023-03-18T04:40:07.257Z,101909.81
2023-03-18T04:42:34.955Z,101912.19
2023-03-18T04:45:02.661Z,101911.13
2023-03-18T04:47:30.166Z,101899.63
2023-03-18T04:49:57.181Z,101918.75
2023-03-18T04:52:24.637Z,101918.56
2023-03-18T04:54:52.097Z,101913.94
2023-03-18T04:57:19.751Z,101924.41
2023-03-18T04:59:51.628Z,101931.72
2023-03-18T05:02:19.981Z,101917.03
2023-03-18T05:04:47.003Z,101926.59
2023-03-18T05:07:16.248Z,101929.84
2023-03-18T05:09:50.984Z,101921.25
2023-03-18T05:12:18.090Z,101930.50
2023-03-18T05:14:46.123Z,101923.94
2023-03-18T05:17:16.102Z,101934.53
2023-03-18T05:19:52.446Z,101926.00
2023-03-18T05:22:22.406Z,101928.22
2023-03-18T05:24:54.994Z,101930.13
2023-03-18T05:27:24.589Z,101935.16
2023-03-18T05:30:01.296Z,101937.50
2023-03-18T05:32:37.027Z,101944.66
2023-03-18T05:35:07.436Z,101918.94
2023-03-18T05:37:43.513Z,101942.09
2023-03-18T05:40:12.923Z,101943.03
2023-03-18T05:42:55.277Z,101909.72
2023-03-18T05:45:31.231Z,101937.53
2023-03-18T05:47:58.437Z,101918.53
2023-03-18T05:50:37.327Z,101950.28
2023-03-18T05:53:09.814Z,101919.31
2023-03-18T05:55:40.560Z,101940.00
2023-03-18T05:58:08.993Z,101930.66
2023-03-18T06:00:38.182Z,101945.13
2023-03-18T06:03:05.594Z,101950.00
2023-03-18T06:05:34.193Z,101950.59
2023-03-18T06:08:02.902Z,101937.19
2023-03-18T06:10:30.107Z,101951.19
2023-03-18T06:12:57.260Z,101951.72
2023-03-18T06:15:25.838Z,101949.56
2023-03-18T06:17:52.987Z,101954.50
2023-03-18T06:20:20.386Z,101955.16
2023-03-18T06:22:51.818Z,101954.34
2023-03-18T06:25:21.225Z,101953.63
2023-03-18T06:27:50.045Z,101956.75
2023-03-18T06:30:19.879Z,101959.75
2023-03-18T06:32:47.282Z,101960.19
2023-03-18T06:35:15.678Z,101950.81
2023-03-18T06:37:43.862Z,101943.00
2023-03-18T06:40:12.454Z,101958.72
2023-03-18T06:42:41.307Z,101938.28
2023-03-18T06:45:17.205Z,101919.56
2023-03-18T06:47:52.890Z,101954.81
2023-03-18T06:50:20.748Z,101951.31
2023-03-18T06:52:48.474Z,101946.28
2023-03-18T06:55:18.574Z,101962.06
2023-03-18T06:57:46.673Z,101955.38
2023-03-18T07:00:17.511Z,101910.28
2023-03-18T07:02:45.915Z,101941.34
2023-03-18T07:05:15.472Z,101951.56
2023-03-18T07:07:43.260Z,101948.94
2023-03-18T07:10:18.290Z,101948.72
2023-03-18T07:12:47.449Z,101950.72
2023-03-18T07:15:14.776Z,101938.91
2023-03-18T07:17:41.810Z,101957.53
2023-03-18T07:20:10.407Z,101954.78
2023-03-18T07:22:37.486Z,101941.41
2023-03-18T07:25:05.436Z,101955.88
2023-03-18T07:27:32.730Z,101953.72
2023-03-18T07:30:02.680Z,101955.94
2023-03-18T07:32:30.878Z,101949.81
2023-03-18T07:34:59.210Z,101950.13
2023-03-18T07:37:26.303Z,101949.16
2023-03-18T07:39:53.250Z,101945.97
2023-03-18T07:42:20.252Z,101951.88
2023-03-18T07:44:47.193Z,101944.91
2023-03-18T07:47:16.915Z,101959.88
2023-03-18T07:49:44.330Z,101959.38
2023-03-18T07:52:11.418Z,101958.03
2023-03-18T07:54:38.423Z,101951.53
2023-03-18T07:57:07.065Z,101952.22
2023-03-18T07:59:34.330Z,101946.69
2023-03-18T08:02:04.986Z,101949.72
2023-03-18T08:04:32.617Z,101948.19
2023-03-18T08:07:00.373Z,101939.72
2023-03-18T08:09:30.675Z,101939.59
2023-03-18T08:11:57.718Z,101945.66
2023-03-18T08:14:24.685Z,101945.81
2023-03-18T08:16:51.639Z,101947.44
2023-03-18T08:19:18.574Z,101937.19
2023-03-18T08:21:45.543Z,101951.22
2023-03-18T08:24:12.460Z,101926.41
2023-03-18T08:26:39.951Z,101939.63
2023-03-18T08:29:07.005Z,101944.84
2023-03-18T08:31:34.305Z,101944.25
2023-03-18T08:34:01.659Z,101935.19
2023-03-18T08:36:28.876Z,101946.00
2023-03-18T08:38:56.738Z,101940.88
2023-03-18T08:41:25.793Z,101932.69
2023-03-18T08:43:53.358Z,101923.13
2023-03-18T08:46:20.513Z,101930.03
2023-03-18T08:48:47.574Z,101922.50
2023-03-18T08:51:14.889Z,101931.66
2023-03-18T08:53:41.859Z,101924.94
2023-03-18T08:56:09.011Z,101925.28
2023-03-18T08:58:36.438Z,101920.50
2023-03-18T09:01:05.452Z,101857.75
2023-03-18T09:03:33.849Z,101919.13
2023-03-18T09:06:00.979Z,101913.41
2023-03-18T09:08:30.903Z,101920.09
2023-03-18T09:10:58.381Z,101917.13
2023-03-18T09:13:25.559Z,101926.00
2023-03-18T09:15:53.059Z,101902.78
2023-03-18T09:18:20.085Z,101915.28
2023-03-18T09:20:47.122Z,101918.47
2023-03-18T09:23:15.793Z,101909.59
2023-03-18T09:25:42.892Z,101894.22
2023-03-18T09:28:10.063Z,101913.38
2023-03-18T09:30:38.251Z,101902.78
2023-03-18T09:33:09.459Z,101900.13
2023-03-18T09:35:37.296Z,101914.41
2023-03-18T09:38:04.923Z,101912.38
2023-03-18T09:40:36.263Z,101907.91
2023-03-18T09:43:23.851Z,101904.88
2023-03-18T09:46:13.209Z,101891.53
2023-03-18T09:48:55.636Z,101891.53
2023-03-18T09:51:46.935Z,101901.34
2023-03-18T09:54:33.442Z,101894.78
2023-03-18T09:57:01.217Z,101886.56
2023-03-18T09:59:33.945Z,101876.94
2023-03-18T10:02:01.940Z,101874.03
2023-03-18T10:04:38.138Z,101878.69
2023-03-18T10:07:15.042Z,101875.47
2023-03-18T10:09:44.773Z,101877.78
2023-03-18T10:12:22.095Z,101873.06
2023-03-18T10:15:00.160Z,101870.81
2023-03-18T10:17:59.272Z,101865.88
2023-03-18T10:20:37.115Z,101868.09
2023-03-18T10:23:19.042Z,101867.56
2023-03-18T10:25:54.722Z,101860.63
2023-03-18T10:28:40.334Z,101866.38
2023-03-18T10:31:39.589Z,101858.16
2023-03-18T10:34:13.509Z,101848.28
2023-03-18T10:37:06.052Z,101857.22
2023-03-18T10:39:35.958Z,101855.66
2023-03-18T10:42:19.480Z,101834.81
2023-03-18T10:44:47.777Z,101819.66
2023-03-18T10:47:19.196Z,101842.16
2023-03-18T10:50:11.151Z,101848.13
2023-03-18T10:52:51.494Z,101837.88
2023-03-18T10:55:24.091Z,101843.78
2023-03-18T10:57:51.604Z,101837.03
2023-03-18T11:00:33.275Z,101833.31
2023-03-18T11:03:02.144Z,101836.22
2023-03-18T11:05:34.124Z,101837.25
2023-03-18T11:08:09.250Z,101819.41
2023-03-18T11:10:47.154Z,101826.09
2023-03-18T11:13:18.556Z,101824.03
2023-03-18T11:15:50.862Z,101827.78
2023-03-18T11:18:23.937Z,101811.41
2023-03-18T11:21:03.753Z,101827.13
2023-03-18T11:23:49.566Z,101818.13
2023-03-18T11:26:28.459Z,101807.97
2023-03-18T11:29:20.608Z,101814.97
2023-03-18T11:31:54.964Z,101821.56
2023-03-18T11:34:22.332Z,101819.66
2023-03-18T11:37:01.515Z,101815.38
2023-03-18T11:39:36.808Z,101820.50
2023-03-18T11:42:17.093Z,101812.34
2023-03-18T11:44:44.074Z,101816.28
2023-03-18T11:47:13.801Z,101817.13
2023-03-18T11:49:43.839Z,101778.53
2023-03-18T11:52:40.968Z,101813.19
2023-03-18T11:55:22.130Z,101806.25
2023-03-18T11:58:08.847Z,101786.25
2023-03-18T12:00:49.207Z,101800.66
2023-03-18T12:03:37.670Z,101804.34
2023-03-18T12:06:25.157Z,101746.22
2023-03-18T12:09:25.267Z,101796.47
2023-03-18T12:11:55.465Z,101794.72
2023-03-18T12:14:35.716Z,101795.69
2023-03-18T12:17:41.271Z,101793.53
2023-03-18T12:20:43.691Z,101792.25
2023-03-18T12:23:34.810Z,101783.19
2023-03-18T12:26:34.701Z,101784.41
2023-03-18T12:29:29.266Z,101757.28
2023-03-18T12:32:35.537Z,101780.72
2023-03-18T12:35:02.783Z,101774.22
2023-03-18T12:38:09.533Z,101752.88
2023-03-18T12:40:59.769Z,101768.59
2023-03-18T12:43:43.900Z,101773.38
2023-03-18T12:46:34.358Z,101771.97
2023-03-18T12:49:13.430Z,101755.41
2023-03-18T12:51:49.626Z,101761.38
2023-03-18T12:54:24.251Z,101762.81
2023-03-18T12:56:58.573Z,101757.38
2023-03-18T12:59:46.323Z,101752.31
2023-03-18T13:02:31.697Z,101753.03
2023-03-18T13:05:02.867Z,101745.81
2023-03-18T13:07:47.040Z,101727.44
2023-03-18T13:10:21.959Z,101745.16
2023-03-18T13:12:54.854Z,101730.47
2023-03-18T13:15:33.827Z,101737.13
2023-03-18T13:18:12.693Z,101731.75
2023-03-18T13:20:41.866Z,101730.13
2023-03-18T13:23:09.804Z,101737.44
2023-03-18T13:26:13.395Z,101727.25
2023-03-18T13:29:10.890Z,101734.16
2023-03-18T13:32:21.623Z,101728.84
2023-03-18T13:35:14.638Z,101672.94
2023-03-18T13:37:53.621Z,101725.66
2023-03-18T13:40:35.742Z,101722.34
2023-03-18T13:43:04.706Z,101715.50
2023-03-18T13:45:40.235Z,101714.97
2023-03-18T13:48:13.866Z,101713.16
2023-03-18T13:50:43.420Z,101712.44
2023-03-18T13:53:22.526Z,101710.16
2023-03-18T13:55:54.235Z,101702.44
2023-03-18T13:58:30.080Z,101697.84
2023-03-18T14:00:57.119Z,101701.63
2023-03-18T14:03:33.300Z,101694.63
2023-03-18T14:06:09.342Z,101699.53
2023-03-18T14:08:39.037Z,101701.91
2023-03-18T14:11:22.871Z,101693.19
2023-03-18T14:13:51.971Z,101688.03
2023-03-18T14:16:28.327Z,101688.00
2023-03-18T14:19:03.013Z,101688.50
2023-03-18T14:21:33.043Z,101668.19
2023-03-18T14:24:22.099Z,101680.38
2023-03-18T14:26:49.508Z,101687.25
2023-03-18T14:29:31.065Z,101671.41
2023-03-18T14:31:59.967Z,101678.56
2023-03-18T14:34:33.447Z,101680.66
2023-03-18T14:37:00.444Z,101678.56
2023-03-18T14:39:32.971Z,101679.78
2023-03-18T14:42:03.230Z,101657.94
2023-03-18T14:44:37.783Z,101673.81
2023-03-18T14:47:13.306Z,101660.53
2023-03-18T14:49:55.767Z,101678.47
2023-03-18T14:52:41.474Z,101673.97
2023-03-18T14:55:18.274Z,101668.16
2023-03-18T14:57:46.401Z,101664.06
2023-03-18T15:00:18.784Z,101662.69
2023-03-18T15:02:46.236Z,101663.69
2023-03-18T15:05:19.349Z,101657.47
2023-03-18T15:07:51.468Z,101673.91
2023-03-18T15:10:24.727Z,101666.38
2023-03-18T15:13:10.121Z,101677.88
2023-03-18T15:15:37.457Z,101673.41
2023-03-18T15:18:26.704Z,101672.72
2023-03-18T15:21:16.118Z,101661.50
2023-03-18T15:23:52.016Z,101672.00
2023-03-18T15:26:23.751Z,101659.44
2023-03-18T15:28:59.240Z,101664.19
2023-03-18T15:31:32.315Z,101655.53
2023-03-18T15:34:31.827Z,101665.34
2023-03-18T15:37:01.923Z,101660.84
2023-03-18T15:39:39.983Z,101665.00
2023-03-18T15:42:20.052Z,101641.44
2023-03-18T15:45:05.390Z,101657.28
2023-03-18T15:47:32.873Z,101655.19
2023-03-18T15:50:09.788Z,101656.78
2023-03-18T15:52:41.941Z,101647.44
2023-03-18T15:55:35.714Z,101661.03
2023-03-18T15:58:07.093Z,101576.88
2023-03-18T16:00:34.942Z,101642.75
2023-03-18T16:03:01.936Z,101657.44
2023-03-18T16:05:29.256Z,101657.41
2023-03-18T16:07:57.026Z,101666.78
2023-03-18T16:10:26.564Z,101657.41
2023-03-18T16:12:59.914Z,101663.38
2023-03-18T16:15:28.082Z,101662.47
2023-03-18T16:17:56.482Z,101662.25
2023-03-18T16:20:29.023Z,101626.38
2023-03-18T16:22:56.953Z,101645.63
2023-03-18T16:25:25.347Z,101660.09
2023-03-18T16:27:59.274Z,101662.59
2023-03-18T16:30:29.242Z,101653.91
2023-03-18T16:32:57.590Z,101639.69
2023-03-18T16:35:27.131Z,101655.72
2023-03-18T16:37:54.545Z,101641.25
2023-03-18T16:40:24.699Z,101651.06
2023-03-18T16:42:52.815Z,101636.81
2023-03-18T16:45:31.104Z,101652.09
2023-03-18T16:48:03.604Z,101659.16
2023-03-18T16:50:35.033Z,101659.41
2023-03-18T16:53:03.053Z,101659.63
2023-03-18T16:55:30.281Z,101636.97
2023-03-18T16:57:59.735Z,101652.28
2023-03-18T17:00:31.806Z,101645.69
2023-03-18T17:03:00.278Z,101656.28
2023-03-18T17:05:28.207Z,101643.91
2023-03-18T17:07:55.176Z,101653.28
2023-03-18T17:10:26.243Z,101658.53
2023-03-18T17:12:57.657Z,101638.78
2023-03-18T17:15:29.350Z,101654.72
2023-03-18T17:17:58.690Z,101633.75
2023-03-18T17:20:27.937Z,101643.69
2023-03-18T17:22:55.801Z,101629.97
2023-03-18T17:25:27.220Z,101650.06
2023-03-18T17:28:00.128Z,101645.94
2023-03-18T17:30:34.919Z,101654.97
2023-03-18T17:33:04.555Z,101634.22
2023-03-18T17:35:32.371Z,101648.72
2023-03-18T17:37:59.877Z,101646.59
2023-03-18T17:40:30.424Z,101644.69
2023-03-18T17:42:57.566Z,101644.69
2023-03-18T17:45:32.299Z,101653.63
2023-03-18T17:48:21.515Z,101649.19
2023-03-18T17:50:51.167Z,101654.09
2023-03-18T17:53:42.212Z,101645.59
2023-03-18T17:56:14.099Z,101644.13
2023-03-18T17:58:44.592Z,101649.03
2023-03-18T18:01:22.545Z,101644.69
2023-03-18T18:03:49.543Z,101651.72
2023-03-18T18:06:19.156Z,101653.25
2023-03-18T18:08:47.641Z,101656.72
2023-03-18T18:11:38.060Z,101655.84
2023-03-18T18:14:14.819Z,101658.72
2023-03-18T18:16:41.819Z,101662.50
2023-03-18T18:19:10.855Z,101660.16
2023-03-18T18:21:37.990Z,101663.38
2023-03-18T18:24:33.528Z,101632.34
2023-03-18T18:27:00.622Z,101654.22
2023-03-18T18:29:29.580Z,101631.00
2023-03-18T18:31:57.482Z,101605.63
2023-03-18T18:34:24.547Z,101650.63
2023-03-18T18:36:51.782Z,101657.31
2023-03-18T18:39:19.705Z,101657.22
2023-03-18T18:41:46.892Z,101650.94
2023-03-18T18:44:14.214Z,101650.63
2023-03-18T18:46:41.508Z,101651.03
2023-03-18T18:49:18.851Z,101645.66
2023-03-18T18:51:46.819Z,101648.47
2023-03-18T18:54:14.176Z,101623.88
2023-03-18T18:56:42.553Z,101621.72
2023-03-18T18:59:23.194Z,101628.75
2023-03-18T19:01:51.128Z,101615.00
2023-03-18T19:04:18.322Z,101638.22
2023-03-18T19:06:46.460Z,101633.66
2023-03-18T19:09:19.193Z,101633.28
2023-03-18T19:11:47.398Z,101625.69
2023-03-18T19:14:19.081Z,101645.22
2023-03-18T19:16:46.806Z,101633.78
2023-03-18T19:19:19.004Z,101624.00
2023-03-18T19:21:46.511Z,101638.94
2023-03-18T19:24:33.813Z,101609.88
2023-03-18T19:27:04.190Z,101627.09
2023-03-18T19:29:34.938Z,101616.91
2023-03-18T19:32:02.097Z,101620.78
2023-03-18T19:34:32.440Z,101622.03
2023-03-18T19:37:02.908Z,101617.13
2023-03-18T19:39:30.062Z,101614.06
2023-03-18T19:41:56.984Z,101615.25
2023-03-18T19:44:26.743Z,101590.97
2023-03-18T19:46:56.253Z,101593.78
2023-03-18T19:49:27.479Z,101605.63
2023-03-18T19:51:55.176Z,101595.50
2023-03-18T19:54:25.348Z,101586.00
2023-03-18T19:56:53.186Z,101596.84
2023-03-18T19:59:25.558Z,101579.50
2023-03-18T20:01:52.582Z,101565.13
2023-03-18T20:04:20.730Z,101602.34
2023-03-18T20:06:47.780Z,101588.09
2023-03-18T20:09:15.142Z,101588.34
2023-03-18T20:11:42.228Z,101588.22
2023-03-18T20:14:31.049Z,101585.03
2023-03-18T20:17:05.979Z,101582.75
2023-03-18T20:19:33.011Z,101579.94
2023-03-18T20:22:00.010Z,101571.25
2023-03-18T20:24:29.821Z,101567.50
2023-03-18T20:26:56.811Z,101568.94
2023-03-18T20:29:25.446Z,101544.16
2023-03-18T20:31:52.529Z,101567.41
2023-03-18T20:34:19.562Z,101564.53
2023-03-18T20:36:46.655Z,101572.13
2023-03-18T20:39:20.652Z,101572.34
2023-03-18T20:41:48.227Z,101562.50
2023-03-18T20:44:15.437Z,101560.34
2023-03-18T20:46:43.132Z,101553.22
2023-03-18T20:49:10.315Z,101572.63
2023-03-18T20:51:40.923Z,101559.47
2023-03-18T20:54:19.715Z,101577.22
2023-03-18T20:56:47.594Z,101573.16
2023-03-18T20:59:14.666Z,101524.19
2023-03-18T21:01:41.932Z,101573.31
2023-03-18T21:04:12.901Z,101564.53
2023-03-18T21:06:42.159Z,101561.09
2023-03-18T21:09:10.668Z,101572.47
2023-03-18T21:11:40.780Z,101565.03
2023-03-18T21:14:13.284Z,101558.50
2023-03-18T21:16:40.262Z,101565.16
2023-03-18T21:19:07.359Z,101555.81
2023-03-18T21:21:39.192Z,101503.59
2023-03-18T21:24:25.430Z,101536.50
2023-03-18T21:27:04.155Z,101541.50
2023-03-18T21:29:32.224Z,101536.16
2023-03-18T21:32:00.089Z,101547.78
2023-03-18T21:34:27.086Z,101560.56
2023-03-18T21:36:54.035Z,101554.19
2023-03-18T21:39:21.393Z,101551.50
2023-03-18T21:41:48.375Z,101548.69
2023-03-18T21:44:15.321Z,101529.69
2023-03-18T21:46:42.327Z,101547.81
2023-03-18T21:49:09.353Z,101521.25
2023-03-18T21:51:40.417Z,101548.81
2023-03-18T21:54:18.013Z,101544.13
2023-03-18T21:56:45.076Z,101544.75
2023-03-18T21:59:12.002Z,101548.84
2023-03-18T22:01:39.182Z,101535.97
2023-03-18T22:04:06.413Z,101537.63
2023-03-18T22:06:34.121Z,101540.97
2023-03-18T22:09:01.659Z,101528.47
2023-03-18T22:11:28.845Z,101543.41
2023-03-18T22:13:55.898Z,101548.41
2023-03-18T22:16:23.077Z,101540.47
2023-03-18T22:18:50.108Z,101539.69
2023-03-18T22:21:35.006Z,101545.19
2023-03-18T22:24:02.055Z,101485.97
2023-03-18T22:26:29.050Z,101525.00
2023-03-18T22:28:55.995Z,101531.31
2023-03-18T22:31:25.798Z,101544.19
2023-03-18T22:33:53.553Z,101534.84
2023-03-18T22:36:21.964Z,101523.38
2023-03-18T22:38:50.060Z,101528.63
2023-03-18T22:41:31.260Z,101534.50
2023-03-18T22:44:00.206Z,101527.22
2023-03-18T22:46:28.583Z,101506.78
2023-03-18T22:48:56.015Z,101526.97
2023-03-18T22:51:27.807Z,101510.91
2023-03-18T22:53:55.246Z,101508.09
2023-03-18T22:56:23.062Z,101499.66
2023-03-18T22:58:50.548Z,101503.97
2023-03-18T23:01:20.134Z,101522.91
2023-03-18T23:03:47.681Z,101523.41
2023-03-18T23:06:20.942Z,101521.88
2023-03-18T23:08:48.118Z,101490.06
2023-03-18T23:11:16.650Z,101509.13
2023-03-18T23:13:53.331Z,101497.34
2023-03-18T23:16:22.875Z,101512.06
2023-03-18T23:18:50.897Z,101509.34
2023-03-18T23:21:21.611Z,101500.69
2023-03-18T23:23:49.020Z,101500.56
2023-03-18T23:26:17.034Z,101444.25
2023-03-18T23:28:45.304Z,101479.09
2023-03-18T23:31:14.202Z,101473.88
2023-03-18T23:33:41.437Z,101473.88
2023-03-18T23:36:08.913Z,101475.78
2023-03-18T23:38:37.839Z,101467.25
2023-03-18T23:41:06.065Z,101486.38
2023-03-18T23:43:33.085Z,101476.94
2023-03-18T23:46:00.193Z,101462.03
2023-03-18T23:48:27.417Z,101468.75
2023-03-18T23:50:54.401Z,101455.13
2023-03-18T23:53:21.441Z,101451.41
2023-03-18T23:55:49.490Z,101462.41
2023-03-18T23:58:16.803Z,101465.59
